createdAt,value
2017-06-06T00:00:31.712Z,0
2017-06-06T00:01:33.130Z,0
2017-06-06T00:02:34.547Z,0
2017-06-06T00:03:35.969Z,0
2017-06-06T00:04:37.384Z,0
2017-06-06T00:05:38.797Z,0
2017-06-06T00:06:40.217Z,0
2017-06-06T00:07:41.645Z,0
2017-06-06T00:08:43.066Z,0
2017-06-06T00:09:44.480Z,0
2017-06-06T00:10:45.911Z,0
2017-06-06T00:11:47.324Z,0
2017-06-06T00:12:48.742Z,0
2017-06-06T00:13:50.152Z,0
2017-06-06T00:14:51.570Z,0
2017-06-06T00:15:52.984Z,0
2017-06-06T00:16:54.403Z,0
2017-06-06T00:17:55.818Z,0
2017-06-06T00:18:57.235Z,0
2017-06-06T00:19:58.648Z,0
2017-06-06T00:21:00.065Z,0
2017-06-06T00:22:01.486Z,0
2017-06-06T00:23:02.895Z,0
2017-06-06T00:24:04.318Z,0
2017-06-06T00:25:05.734Z,0
2017-06-06T00:26:07.159Z,0
2017-06-06T00:27:08.573Z,0
2017-06-06T00:28:09.988Z,0
2017-06-06T00:29:11.404Z,0
2017-06-06T00:30:12.823Z,0
2017-06-06T00:31:14.254Z,0
2017-06-06T00:32:15.661Z,0
2017-06-06T00:33:17.079Z,0
2017-06-06T00:34:18.497Z,0
2017-06-06T00:35:19.911Z,0
2017-06-06T00:36:21.331Z,0
2017-06-06T00:37:22.756Z,0
2017-06-06T00:38:24.185Z,0
2017-06-06T00:39:25.602Z,0
2017-06-06T00:40:27.021Z,0
2017-06-06T00:41:28.452Z,0
2017-06-06T00:42:29.912Z,0
2017-06-06T00:43:31.337Z,0
2017-06-06T00:44:32.749Z,0
2017-06-06T00:45:34.168Z,0
2017-06-06T00:46:35.585Z,0
2017-06-06T00:47:37.002Z,0
2017-06-06T00:48:38.427Z,0
2017-06-06T00:49:39.839Z,0
2017-06-06T00:50:41.261Z,0
2017-06-06T00:51:42.677Z,0
2017-06-06T00:52:44.101Z,0
2017-06-06T00:53:45.517Z,0
2017-06-06T00:54:46.934Z,0
2017-06-06T00:55:48.351Z,0
2017-06-06T00:56:49.797Z,0
2017-06-06T00:57:51.179Z,0
2017-06-06T00:58:52.604Z,0
2017-06-06T00:59:54.024Z,0
2017-06-06T01:00:55.447Z,0
2017-06-06T01:01:56.872Z,0
2017-06-06T01:02:58.283Z,0
2017-06-06T01:03:59.697Z,0
2017-06-06T01:05:01.114Z,0
2017-06-06T01:06:02.531Z,0
2017-06-06T01:07:03.951Z,0
2017-06-06T01:08:05.377Z,0
2017-06-06T01:09:06.796Z,0
2017-06-06T01:10:08.212Z,0
2017-06-06T01:11:09.624Z,0
2017-06-06T01:12:11.041Z,0
2017-06-06T01:13:12.459Z,0
2017-06-06T01:14:13.878Z,0
2017-06-06T01:15:15.296Z,0
2017-06-06T01:16:16.723Z,0
2017-06-06T01:17:18.144Z,0
2017-06-06T01:18:19.555Z,0
2017-06-06T01:19:20.970Z,0
2017-06-06T01:20:22.387Z,0
2017-06-06T01:21:23.813Z,0
2017-06-06T01:22:25.235Z,0
2017-06-06T01:23:26.656Z,0
2017-06-06T01:24:28.072Z,0
2017-06-06T01:25:29.489Z,0
2017-06-06T01:26:30.908Z,0
2017-06-06T01:27:32.325Z,0
2017-06-06T01:28:33.738Z,0
2017-06-06T01:29:35.158Z,0
2017-06-06T01:30:36.576Z,0
2017-06-06T01:31:38.010Z,0
2017-06-06T01:32:39.433Z,0
2017-06-06T01:33:40.851Z,0
2017-06-06T01:34:42.267Z,0
2017-06-06T01:35:43.687Z,0
2017-06-06T01:36:45.105Z,0
2017-06-06T01:37:46.524Z,0
2017-06-06T01:38:47.936Z,0
2017-06-06T01:39:49.372Z,0
2017-06-06T01:40:50.785Z,0
2017-06-06T01:41:52.203Z,0
2017-06-06T01:42:53.625Z,0
2017-06-06T01:43:55.043Z,0
2017-06-06T01:44:56.459Z,0
2017-06-06T01:45:57.877Z,0
2017-06-06T01:46:59.296Z,0
2017-06-06T01:48:00.706Z,0
2017-06-06T01:49:02.129Z,0
2017-06-06T01:50:03.549Z,0
2017-06-06T01:51:04.967Z,0
2017-06-06T01:52:06.384Z,0
2017-06-06T01:53:07.801Z,0
2017-06-06T01:54:09.216Z,0
2017-06-06T01:55:10.636Z,0
2017-06-06T01:56:12.061Z,0
2017-06-06T01:57:13.482Z,0
2017-06-06T01:58:14.900Z,0
2017-06-06T01:59:16.320Z,0
2017-06-06T02:00:17.736Z,0
2017-06-06T02:01:19.154Z,0
2017-06-06T02:02:20.571Z,0
2017-06-06T02:03:21.984Z,0
2017-06-06T02:04:23.398Z,0
2017-06-06T02:05:24.817Z,0
2017-06-06T02:06:26.243Z,0
2017-06-06T02:07:27.661Z,0
2017-06-06T02:08:29.072Z,0
2017-06-06T02:09:30.488Z,0
2017-06-06T02:10:31.911Z,0
2017-06-06T02:11:33.332Z,0
2017-06-06T02:12:34.753Z,0
2017-06-06T02:13:36.172Z,0
2017-06-06T02:14:37.627Z,0
2017-06-06T02:15:39.037Z,0
2017-06-06T02:16:40.450Z,0
2017-06-06T02:17:41.885Z,0
2017-06-06T02:18:43.302Z,0
2017-06-06T02:19:44.717Z,0
2017-06-06T02:20:46.132Z,0
2017-06-06T02:21:47.547Z,0
2017-06-06T02:22:48.959Z,0
2017-06-06T02:23:50.374Z,0
2017-06-06T02:24:51.789Z,0
2017-06-06T02:25:53.205Z,0
2017-06-06T02:26:54.652Z,0
2017-06-06T02:27:56.089Z,0
2017-06-06T02:28:57.502Z,0
2017-06-06T02:29:58.919Z,0
2017-06-06T02:31:00.344Z,0
2017-06-06T02:32:01.780Z,0
2017-06-06T02:33:03.198Z,0
2017-06-06T02:34:04.624Z,0
2017-06-06T02:35:06.347Z,0
2017-06-06T02:36:07.789Z,0
2017-06-06T02:37:09.198Z,0
2017-06-06T02:38:10.616Z,0
2017-06-06T02:39:12.035Z,0
2017-06-06T02:40:13.472Z,0
2017-06-06T02:41:14.888Z,0
2017-06-06T02:42:16.305Z,0
2017-06-06T02:43:17.712Z,0
2017-06-06T02:44:19.147Z,0
2017-06-06T02:45:20.573Z,0
2017-06-06T02:46:22.004Z,0
2017-06-06T02:47:23.455Z,0
2017-06-06T02:48:24.896Z,0
2017-06-06T02:49:26.325Z,0
2017-06-06T02:50:27.740Z,0
2017-06-06T02:51:29.155Z,0
2017-06-06T02:52:30.609Z,0
2017-06-06T02:53:32.024Z,0
2017-06-06T02:54:33.435Z,0
2017-06-06T02:55:34.868Z,0
2017-06-06T02:56:36.297Z,0
2017-06-06T02:57:37.698Z,0
2017-06-06T02:58:39.112Z,0
2017-06-06T02:59:40.539Z,0
2017-06-06T03:00:41.966Z,0
2017-06-06T03:01:43.381Z,0
2017-06-06T03:02:44.805Z,4
2017-06-06T03:03:46.224Z,4
2017-06-06T03:04:47.637Z,0
2017-06-06T03:05:49.061Z,0
2017-06-06T03:06:50.473Z,4
2017-06-06T03:07:51.893Z,0
2017-06-06T03:08:53.322Z,4
2017-06-06T03:09:54.736Z,0
2017-06-06T03:10:56.158Z,0
2017-06-06T03:11:57.570Z,4
2017-06-06T03:12:58.988Z,4
2017-06-06T03:14:00.403Z,4
2017-06-06T03:15:01.817Z,4
2017-06-06T03:16:03.246Z,4
2017-06-06T03:17:04.660Z,4
2017-06-06T03:18:06.074Z,4
2017-06-06T03:19:07.492Z,4
2017-06-06T03:20:08.910Z,4
2017-06-06T03:21:10.326Z,8
2017-06-06T03:22:11.740Z,8
2017-06-06T03:23:13.158Z,8
2017-06-06T03:24:14.578Z,8
2017-06-06T03:25:15.992Z,8
2017-06-06T03:26:17.458Z,8
2017-06-06T03:27:18.863Z,8
2017-06-06T03:28:20.284Z,12
2017-06-06T03:29:27.551Z,12
2017-06-06T03:30:32.524Z,12
2017-06-06T03:31:33.706Z,12
2017-06-06T03:32:35.130Z,16
2017-06-06T03:33:36.556Z,16
2017-06-06T03:34:37.982Z,16
2017-06-06T03:35:39.391Z,16
2017-06-06T03:36:40.806Z,20
2017-06-06T03:37:42.270Z,20
2017-06-06T03:38:43.668Z,20
2017-06-06T03:39:45.091Z,20
2017-06-06T03:40:46.524Z,24
2017-06-06T03:41:47.932Z,24
2017-06-06T03:42:49.348Z,28
2017-06-06T03:43:50.762Z,28
2017-06-06T03:44:52.193Z,24
2017-06-06T03:45:53.632Z,28
2017-06-06T03:46:55.039Z,28
2017-06-06T03:47:56.460Z,28
2017-06-06T03:48:57.881Z,28
2017-06-06T03:49:59.308Z,32
2017-06-06T03:51:00.733Z,32
2017-06-06T03:52:02.164Z,32
2017-06-06T03:53:03.580Z,36
2017-06-06T03:54:05.006Z,40
2017-06-06T03:55:06.478Z,40
2017-06-06T03:56:07.904Z,40
2017-06-06T03:57:09.321Z,40
2017-06-06T03:58:10.742Z,44
2017-06-06T03:59:12.179Z,48
2017-06-06T04:00:13.603Z,52
2017-06-06T04:01:15.037Z,48
2017-06-06T04:02:16.438Z,52
2017-06-06T04:03:17.854Z,56
2017-06-06T04:04:19.283Z,60
2017-06-06T04:05:20.705Z,60
2017-06-06T04:06:22.121Z,64
2017-06-06T04:07:23.547Z,68
2017-06-06T04:08:24.965Z,72
2017-06-06T04:09:26.381Z,72
2017-06-06T04:10:27.815Z,80
2017-06-06T04:11:29.215Z,80
2017-06-06T04:12:30.632Z,88
2017-06-06T04:13:32.051Z,92
2017-06-06T04:14:33.475Z,92
2017-06-06T04:15:34.893Z,100
2017-06-06T04:16:36.312Z,104
2017-06-06T04:17:37.730Z,108
2017-06-06T04:18:39.151Z,112
2017-06-06T04:19:40.570Z,120
2017-06-06T04:20:41.988Z,120
2017-06-06T04:21:43.412Z,128
2017-06-06T04:22:44.837Z,128
2017-06-06T04:23:46.256Z,136
2017-06-06T04:24:47.672Z,136
2017-06-06T04:25:49.090Z,140
2017-06-06T04:26:50.512Z,148
2017-06-06T04:27:51.934Z,156
2017-06-06T04:28:53.356Z,164
2017-06-06T04:29:54.779Z,172
2017-06-06T04:30:56.196Z,180
2017-06-06T04:31:57.619Z,188
2017-06-06T04:32:59.036Z,196
2017-06-06T04:34:00.457Z,196
2017-06-06T04:35:01.871Z,200
2017-06-06T04:36:03.293Z,204
2017-06-06T04:37:04.725Z,204
2017-06-06T04:38:06.143Z,208
2017-06-06T04:39:07.573Z,216
2017-06-06T04:40:08.998Z,216
2017-06-06T04:41:10.418Z,208
2017-06-06T04:42:11.833Z,208
2017-06-06T04:43:13.256Z,204
2017-06-06T04:44:14.677Z,204
2017-06-06T04:45:16.095Z,208
2017-06-06T04:46:17.508Z,216
2017-06-06T04:47:18.933Z,220
2017-06-06T04:48:20.410Z,216
2017-06-06T04:49:21.836Z,208
2017-06-06T04:50:23.251Z,204
2017-06-06T04:51:24.685Z,204
2017-06-06T04:52:26.103Z,200
2017-06-06T04:53:27.520Z,200
2017-06-06T04:54:28.940Z,204
2017-06-06T04:55:30.356Z,200
2017-06-06T04:56:31.788Z,200
2017-06-06T04:57:33.358Z,208
2017-06-06T04:58:35.053Z,224
2017-06-06T04:59:37.916Z,236
2017-06-06T05:00:40.241Z,248
2017-06-06T05:01:42.484Z,256
2017-06-06T05:02:44.474Z,256
2017-06-06T05:03:45.863Z,264
2017-06-06T05:04:47.315Z,268
2017-06-06T05:05:48.770Z,276
2017-06-06T05:06:50.223Z,276
2017-06-06T05:07:51.648Z,276
2017-06-06T05:08:53.080Z,276
2017-06-06T05:09:54.857Z,276
2017-06-06T05:10:57.559Z,276
2017-06-06T05:11:58.850Z,272
2017-06-06T05:13:01.109Z,272
2017-06-06T05:14:03.442Z,272
2017-06-06T05:15:04.874Z,272
2017-06-06T05:16:06.296Z,276
2017-06-06T05:17:07.712Z,284
2017-06-06T05:18:09.128Z,292
2017-06-06T05:19:10.552Z,308
2017-06-06T05:20:11.984Z,328
2017-06-06T05:21:13.395Z,352
2017-06-06T05:22:14.817Z,380
2017-06-06T05:23:16.229Z,404
2017-06-06T05:24:17.676Z,424
2017-06-06T05:25:19.119Z,436
2017-06-06T05:26:20.551Z,448
2017-06-06T05:27:21.979Z,468
2017-06-06T05:28:23.395Z,448
2017-06-06T05:29:24.814Z,416
2017-06-06T05:30:29.444Z,388
2017-06-06T05:31:30.857Z,364
2017-06-06T05:32:32.286Z,328
2017-06-06T05:33:33.715Z,304
2017-06-06T05:34:35.133Z,296
2017-06-06T05:35:36.551Z,296
2017-06-06T05:36:37.980Z,284
2017-06-06T05:37:41.462Z,260
2017-06-06T05:38:42.878Z,268
2017-06-06T05:39:44.296Z,268
2017-06-06T05:40:45.719Z,236
2017-06-06T05:41:48.064Z,236
2017-06-06T05:42:49.489Z,236
2017-06-06T05:43:50.907Z,252
2017-06-06T05:44:52.326Z,276
2017-06-06T05:45:53.752Z,288
2017-06-06T05:46:55.172Z,284
2017-06-06T05:47:56.595Z,280
2017-06-06T05:48:58.065Z,260
2017-06-06T05:49:59.480Z,244
2017-06-06T05:51:00.903Z,232
2017-06-06T05:52:02.326Z,232
2017-06-06T05:53:03.749Z,260
2017-06-06T05:54:05.165Z,288
2017-06-06T05:55:06.672Z,272
2017-06-06T05:56:08.094Z,256
2017-06-06T05:57:09.507Z,248
2017-06-06T05:58:10.927Z,264
2017-06-06T05:59:12.343Z,308
2017-06-06T06:00:13.766Z,328
2017-06-06T06:01:15.193Z,320
2017-06-06T06:02:16.620Z,332
2017-06-06T06:03:18.043Z,352
2017-06-06T06:04:19.456Z,348
2017-06-06T06:05:20.875Z,344
2017-06-06T06:06:22.382Z,332
2017-06-06T06:07:23.797Z,352
2017-06-06T06:08:25.394Z,388
2017-06-06T06:09:26.824Z,420
2017-06-06T06:10:28.237Z,436
2017-06-06T06:11:29.655Z,424
2017-06-06T06:12:31.076Z,392
2017-06-06T06:13:32.494Z,368
2017-06-06T06:14:33.930Z,344
2017-06-06T06:15:35.394Z,332
2017-06-06T06:16:36.817Z,320
2017-06-06T06:17:38.279Z,312
2017-06-06T06:18:39.728Z,320
2017-06-06T06:19:41.133Z,320
2017-06-06T06:20:42.621Z,320
2017-06-06T06:21:44.040Z,296
2017-06-06T06:22:45.459Z,268
2017-06-06T06:23:46.878Z,252
2017-06-06T06:24:48.300Z,244
2017-06-06T06:25:49.737Z,256
2017-06-06T06:26:51.151Z,264
2017-06-06T06:27:52.608Z,252
2017-06-06T06:28:54.024Z,244
2017-06-06T06:29:55.444Z,232
2017-06-06T06:30:56.863Z,212
2017-06-06T06:31:58.278Z,200
2017-06-06T06:32:59.696Z,196
2017-06-06T06:34:01.125Z,188
2017-06-06T06:35:02.538Z,180
2017-06-06T06:36:03.959Z,180
2017-06-06T06:37:05.382Z,180
2017-06-06T06:38:06.801Z,172
2017-06-06T06:39:08.222Z,172
2017-06-06T06:40:09.670Z,168
2017-06-06T06:41:11.064Z,160
2017-06-06T06:42:12.590Z,152
2017-06-06T06:43:14.408Z,136
2017-06-06T06:44:15.753Z,136
2017-06-06T06:45:17.178Z,132
2017-06-06T06:46:18.593Z,132
2017-06-06T06:47:20.016Z,116
2017-06-06T06:48:21.431Z,112
2017-06-06T06:49:22.854Z,120
2017-06-06T06:50:24.328Z,128
2017-06-06T06:51:25.771Z,136
2017-06-06T06:52:27.193Z,144
2017-06-06T06:53:28.651Z,152
2017-06-06T06:54:30.067Z,152
2017-06-06T06:55:31.488Z,160
2017-06-06T06:56:32.900Z,168
2017-06-06T06:57:34.324Z,180
2017-06-06T06:58:35.750Z,188
2017-06-06T06:59:37.170Z,200
2017-06-06T07:00:38.590Z,208
2017-06-06T07:01:40.199Z,200
2017-06-06T07:02:41.782Z,196
2017-06-06T07:03:43.201Z,204
2017-06-06T07:04:44.630Z,208
2017-06-06T07:05:46.043Z,224
2017-06-06T07:06:47.459Z,244
2017-06-06T07:07:48.896Z,264
2017-06-06T07:08:50.313Z,284
2017-06-06T07:09:51.804Z,296
2017-06-06T07:10:53.220Z,296
2017-06-06T07:11:54.712Z,292
2017-06-06T07:12:56.324Z,288
2017-06-06T07:13:57.760Z,288
2017-06-06T07:14:59.175Z,296
2017-06-06T07:16:00.607Z,304
2017-06-06T07:17:02.046Z,296
2017-06-06T07:18:03.494Z,300
2017-06-06T07:19:04.937Z,308
2017-06-06T07:20:06.366Z,316
2017-06-06T07:21:07.787Z,328
2017-06-06T07:22:09.204Z,340
2017-06-06T07:23:10.640Z,348
2017-06-06T07:24:12.143Z,356
2017-06-06T07:25:13.567Z,352
2017-06-06T07:26:14.984Z,344
2017-06-06T07:27:17.153Z,372
2017-06-06T07:28:18.568Z,388
2017-06-06T07:29:20.009Z,396
2017-06-06T07:30:21.470Z,400
2017-06-06T07:31:22.887Z,404
2017-06-06T07:32:24.369Z,416
2017-06-06T07:33:25.783Z,408
2017-06-06T07:34:27.208Z,412
2017-06-06T07:35:28.645Z,404
2017-06-06T07:36:30.086Z,400
2017-06-06T07:37:31.539Z,400
2017-06-06T07:38:32.985Z,396
2017-06-06T07:39:34.407Z,396
2017-06-06T07:40:35.834Z,400
2017-06-06T07:41:37.250Z,412
2017-06-06T07:42:38.684Z,432
2017-06-06T07:43:40.107Z,456
2017-06-06T07:44:41.539Z,472
2017-06-06T07:45:42.959Z,504
2017-06-06T07:46:44.456Z,500
2017-06-06T07:47:45.860Z,508
2017-06-06T07:48:47.291Z,512
2017-06-06T07:49:48.750Z,532
2017-06-06T07:50:50.154Z,548
2017-06-06T07:51:51.575Z,564
2017-06-06T07:52:52.990Z,560
2017-06-06T07:53:54.415Z,540
2017-06-06T07:54:55.829Z,524
2017-06-06T07:55:57.272Z,508
2017-06-06T07:56:58.711Z,504
2017-06-06T07:58:00.140Z,504
2017-06-06T07:59:01.562Z,512
2017-06-06T08:00:02.978Z,528
2017-06-06T08:01:04.392Z,552
2017-06-06T08:02:05.810Z,564
2017-06-06T08:03:07.226Z,552
2017-06-06T08:04:08.659Z,520
2017-06-06T08:05:10.905Z,468
2017-06-06T08:06:12.322Z,400
2017-06-06T08:07:13.756Z,364
2017-06-06T08:08:15.176Z,372
2017-06-06T08:09:16.592Z,404
2017-06-06T08:10:18.014Z,424
2017-06-06T08:11:19.440Z,440
2017-06-06T08:12:20.862Z,428
2017-06-06T08:13:22.325Z,416
2017-06-06T08:14:23.767Z,416
2017-06-06T08:15:25.181Z,412
2017-06-06T08:16:26.610Z,420
2017-06-06T08:17:28.029Z,424
2017-06-06T08:18:29.528Z,384
2017-06-06T08:19:30.957Z,388
2017-06-06T08:20:32.405Z,380
2017-06-06T08:21:34.916Z,332
2017-06-06T08:22:36.282Z,352
2017-06-06T08:23:37.705Z,404
2017-06-06T08:24:39.125Z,404
2017-06-06T08:25:40.545Z,380
2017-06-06T08:26:41.971Z,344
2017-06-06T08:27:43.412Z,348
2017-06-06T08:28:44.895Z,364
2017-06-06T08:29:46.312Z,364
2017-06-06T08:30:47.846Z,356
2017-06-06T08:31:49.266Z,364
2017-06-06T08:32:50.691Z,344
2017-06-06T08:33:52.116Z,332
2017-06-06T08:34:53.535Z,344
2017-06-06T08:35:54.968Z,348
2017-06-06T08:36:56.389Z,352
2017-06-06T08:37:57.985Z,344
2017-06-06T08:38:59.432Z,308
2017-06-06T08:40:00.867Z,288
2017-06-06T08:41:02.301Z,296
2017-06-06T08:42:03.762Z,264
2017-06-06T08:43:05.231Z,256
2017-06-06T08:44:06.648Z,284
2017-06-06T08:45:08.096Z,340
2017-06-06T08:46:09.516Z,384
2017-06-06T08:47:10.945Z,428
2017-06-06T08:48:12.369Z,464
2017-06-06T08:49:13.786Z,532
2017-06-06T08:50:15.207Z,568
2017-06-06T08:51:16.625Z,480
2017-06-06T08:52:18.048Z,436
2017-06-06T08:53:19.468Z,424
2017-06-06T08:54:20.891Z,380
2017-06-06T08:55:23.068Z,396
2017-06-06T08:56:25.774Z,460
2017-06-06T08:57:27.874Z,448
2017-06-06T08:58:29.301Z,412
2017-06-06T08:59:32.627Z,428
2017-06-06T09:00:33.206Z,488
2017-06-06T09:01:35.237Z,484
2017-06-06T09:02:37.085Z,532
2017-06-06T09:03:38.502Z,592
2017-06-06T09:04:42.858Z,656
2017-06-06T09:05:46.294Z,688
2017-06-06T09:06:49.863Z,680
2017-06-06T09:07:53.549Z,576
2017-06-06T09:08:55.320Z,492
2017-06-06T09:09:56.748Z,432
2017-06-06T09:10:58.168Z,488
2017-06-06T09:12:02.034Z,468
2017-06-06T09:13:03.423Z,384
2017-06-06T09:14:04.843Z,404
2017-06-06T09:15:06.264Z,372
2017-06-06T09:16:09.892Z,332
2017-06-06T09:17:12.599Z,360
2017-06-06T09:18:16.541Z,340
2017-06-06T09:19:22.462Z,264
2017-06-06T09:20:26.578Z,288
2017-06-06T09:21:27.998Z,280
2017-06-06T09:22:29.416Z,328
2017-06-06T09:23:30.846Z,336
2017-06-06T09:24:33.134Z,268
2017-06-06T09:25:34.559Z,236
2017-06-06T09:26:35.985Z,256
2017-06-06T09:27:37.404Z,284
2017-06-06T09:28:38.866Z,296
2017-06-06T09:29:43.191Z,328
2017-06-06T09:30:47.409Z,376
2017-06-06T09:31:48.790Z,396
2017-06-06T09:32:50.263Z,408
2017-06-06T09:33:54.473Z,456
2017-06-06T09:34:55.849Z,532
2017-06-06T09:35:57.309Z,604
2017-06-06T09:36:58.770Z,632
2017-06-06T09:38:03.341Z,640
2017-06-06T09:39:07.421Z,648
2017-06-06T09:40:09.746Z,652
2017-06-06T09:41:11.168Z,628
2017-06-06T09:42:12.603Z,632
2017-06-06T09:43:14.024Z,636
2017-06-06T09:44:17.533Z,616
2017-06-06T09:45:18.977Z,576
2017-06-06T09:46:23.797Z,532
2017-06-06T09:47:25.842Z,480
2017-06-06T09:48:28.791Z,424
2017-06-06T09:49:32.322Z,380
2017-06-06T09:50:34.132Z,404
2017-06-06T09:51:37.326Z,476
2017-06-06T09:52:38.772Z,504
2017-06-06T09:53:40.217Z,524
2017-06-06T09:54:42.001Z,520
2017-06-06T09:55:44.500Z,504
2017-06-06T09:56:46.881Z,436
2017-06-06T09:57:48.296Z,408
2017-06-06T09:58:51.989Z,340
2017-06-06T09:59:56.427Z,264
2017-06-06T10:00:57.917Z,224
2017-06-06T10:02:00.784Z,200
2017-06-06T10:03:02.203Z,208
2017-06-06T10:04:03.623Z,228
2017-06-06T10:05:05.062Z,228
2017-06-06T10:06:06.566Z,172
2017-06-06T10:07:07.925Z,144
2017-06-06T10:08:09.412Z,132
2017-06-06T10:09:10.823Z,108
2017-06-06T10:10:12.274Z,96
2017-06-06T10:11:13.700Z,124
2017-06-06T10:12:15.124Z,180
2017-06-06T10:13:16.573Z,228
2017-06-06T10:14:18.000Z,280
2017-06-06T10:15:19.442Z,336
2017-06-06T10:16:20.886Z,312
2017-06-06T10:17:22.293Z,308
2017-06-06T10:18:23.723Z,356
2017-06-06T10:19:25.141Z,400
2017-06-06T10:20:26.570Z,448
2017-06-06T10:21:27.999Z,536
2017-06-06T10:22:30.251Z,596
2017-06-06T10:23:31.629Z,620
2017-06-06T10:24:33.061Z,584
2017-06-06T10:25:34.480Z,548
2017-06-06T10:26:35.909Z,508
2017-06-06T10:27:37.339Z,500
2017-06-06T10:28:38.752Z,564
2017-06-06T10:29:40.177Z,692
2017-06-06T10:30:41.594Z,724
2017-06-06T10:31:43.084Z,672
2017-06-06T10:32:44.507Z,644
2017-06-06T10:33:45.933Z,628
2017-06-06T10:34:47.364Z,608
2017-06-06T10:35:48.783Z,580
2017-06-06T10:36:50.208Z,544
2017-06-06T10:37:51.621Z,512
2017-06-06T10:38:53.043Z,496
2017-06-06T10:39:54.481Z,516
2017-06-06T10:40:55.900Z,536
2017-06-06T10:41:57.323Z,580
2017-06-06T10:42:58.770Z,616
2017-06-06T10:44:00.192Z,688
2017-06-06T10:45:01.614Z,712
2017-06-06T10:46:03.035Z,704
2017-06-06T10:47:04.453Z,760
2017-06-06T10:48:05.872Z,796
2017-06-06T10:49:07.293Z,880
2017-06-06T10:50:08.718Z,820
2017-06-06T10:51:10.139Z,772
2017-06-06T10:52:11.560Z,792
2017-06-06T10:53:12.982Z,780
2017-06-06T10:54:14.408Z,792
2017-06-06T10:55:15.825Z,828
2017-06-06T10:56:17.253Z,816
2017-06-06T10:57:18.666Z,772
2017-06-06T10:58:20.088Z,788
2017-06-06T10:59:21.514Z,892
2017-06-06T11:00:22.934Z,940
2017-06-06T11:01:24.352Z,1056
2017-06-06T11:02:25.796Z,1132
2017-06-06T11:03:27.211Z,1132
2017-06-06T11:04:28.635Z,1120
2017-06-06T11:05:30.056Z,1136
2017-06-06T11:06:31.494Z,1024
2017-06-06T11:07:32.906Z,968
2017-06-06T11:08:34.348Z,980
2017-06-06T11:09:35.770Z,964
2017-06-06T11:10:37.190Z,928
2017-06-06T11:11:41.122Z,928
2017-06-06T11:12:46.562Z,920
2017-06-06T11:13:51.696Z,940
2017-06-06T11:14:56.813Z,1116
2017-06-06T11:16:01.360Z,1084
2017-06-06T11:17:07.675Z,1064
2017-06-06T11:18:09.043Z,968
2017-06-06T11:19:12.221Z,856
2017-06-06T11:20:15.351Z,844
2017-06-06T11:21:20.804Z,832
2017-06-06T11:22:27.332Z,816
2017-06-06T11:23:32.240Z,936
2017-06-06T11:24:40.033Z,1020
2017-06-06T11:25:42.220Z,920
2017-06-06T11:26:47.001Z,868
2017-06-06T11:27:49.601Z,860
2017-06-06T11:28:53.370Z,880
2017-06-06T11:29:56.958Z,820
2017-06-06T11:31:02.108Z,780
2017-06-06T11:32:06.043Z,856
2017-06-06T11:33:10.227Z,924
2017-06-06T11:34:14.905Z,1068
2017-06-06T11:35:16.421Z,1060
2017-06-06T11:36:17.844Z,876
2017-06-06T11:37:22.230Z,840
2017-06-06T11:38:27.990Z,848
2017-06-06T11:39:29.464Z,892
2017-06-06T11:40:34.792Z,868
2017-06-06T11:41:39.901Z,912
2017-06-06T11:42:45.123Z,912
2017-06-06T11:43:46.527Z,952
2017-06-06T11:44:47.963Z,804
2017-06-06T11:45:49.383Z,936
2017-06-06T11:46:50.806Z,868
2017-06-06T11:47:52.230Z,684
2017-06-06T11:48:53.676Z,736
2017-06-06T11:49:55.094Z,780
2017-06-06T11:50:56.526Z,656
2017-06-06T11:51:57.962Z,688
2017-06-06T11:52:59.386Z,768
2017-06-06T11:54:00.809Z,768
2017-06-06T11:55:02.463Z,688
2017-06-06T11:56:04.078Z,620
2017-06-06T11:57:05.661Z,576
2017-06-06T11:58:07.121Z,544
2017-06-06T11:59:08.656Z,480
2017-06-06T12:00:10.073Z,536
2017-06-06T12:01:11.959Z,636
2017-06-06T12:02:13.626Z,816
2017-06-06T12:03:15.308Z,896
2017-06-06T12:04:16.717Z,988
2017-06-06T12:05:18.514Z,1048
2017-06-06T12:06:19.938Z,1100
2017-06-06T12:07:21.359Z,1092
2017-06-06T12:08:23.167Z,896
2017-06-06T12:09:25.849Z,892
2017-06-06T12:10:27.268Z,828
2017-06-06T12:11:28.909Z,704
2017-06-06T12:12:30.635Z,796
2017-06-06T12:13:32.050Z,892
2017-06-06T12:14:33.869Z,836
2017-06-06T12:15:35.282Z,760
2017-06-06T12:16:36.829Z,564
2017-06-06T12:17:40.404Z,560
2017-06-06T12:18:42.480Z,580
2017-06-06T12:19:44.442Z,552
2017-06-06T12:20:47.455Z,532
2017-06-06T12:21:50.134Z,644
2017-06-06T12:22:51.529Z,808
2017-06-06T12:23:53.767Z,748
2017-06-06T12:24:55.448Z,636
2017-06-06T12:25:57.247Z,544
2017-06-06T12:26:58.824Z,500
2017-06-06T12:28:00.563Z,504
2017-06-06T12:29:02.189Z,508
2017-06-06T12:30:03.607Z,612
2017-06-06T12:31:05.042Z,764
2017-06-06T12:32:06.629Z,856
2017-06-06T12:33:08.373Z,892
2017-06-06T12:34:09.861Z,896
2017-06-06T12:35:11.451Z,888
2017-06-06T12:36:12.921Z,856
2017-06-06T12:37:14.416Z,920
2017-06-06T12:38:15.869Z,936
2017-06-06T12:39:17.286Z,912
2017-06-06T12:40:18.709Z,912
2017-06-06T12:41:20.151Z,936
2017-06-06T12:42:21.562Z,1000
2017-06-06T12:43:22.986Z,1088
2017-06-06T12:44:24.406Z,1124
2017-06-06T12:45:25.832Z,1044
2017-06-06T12:46:27.505Z,952
2017-06-06T12:47:28.929Z,832
2017-06-06T12:48:30.347Z,772
2017-06-06T12:49:31.774Z,796
2017-06-06T12:50:33.544Z,828
2017-06-06T12:51:34.980Z,856
2017-06-06T12:52:36.427Z,860
2017-06-06T12:53:37.854Z,784
2017-06-06T12:54:39.282Z,740
2017-06-06T12:55:40.712Z,716
2017-06-06T12:56:42.139Z,712
2017-06-06T12:57:43.553Z,772
2017-06-06T12:58:45.026Z,812
2017-06-06T12:59:46.446Z,840
2017-06-06T13:00:47.925Z,1028
2017-06-06T13:01:49.347Z,920
2017-06-06T13:02:50.997Z,908
2017-06-06T13:03:52.415Z,928
2017-06-06T13:04:53.964Z,936
2017-06-06T13:05:55.399Z,928
2017-06-06T13:06:56.819Z,984
2017-06-06T13:07:58.244Z,1016
2017-06-06T13:08:59.668Z,996
2017-06-06T13:10:01.088Z,904
2017-06-06T13:11:02.543Z,808
2017-06-06T13:12:04.101Z,824
2017-06-06T13:13:05.536Z,824
2017-06-06T13:14:06.949Z,732
2017-06-06T13:15:08.371Z,772
2017-06-06T13:16:09.792Z,860
2017-06-06T13:17:11.222Z,880
2017-06-06T13:18:12.646Z,860
2017-06-06T13:19:14.081Z,772
2017-06-06T13:20:15.489Z,836
2017-06-06T13:21:17.272Z,896
2017-06-06T13:22:18.705Z,884
2017-06-06T13:23:20.615Z,860
2017-06-06T13:24:22.214Z,948
2017-06-06T13:25:23.651Z,852
2017-06-06T13:26:25.095Z,800
2017-06-06T13:27:26.651Z,740
2017-06-06T13:28:28.225Z,756
2017-06-06T13:29:29.645Z,776
2017-06-06T13:30:33.346Z,644
2017-06-06T13:31:35.274Z,688
2017-06-06T13:32:36.706Z,836
2017-06-06T13:33:38.129Z,752
2017-06-06T13:34:39.550Z,800
2017-06-06T13:35:40.987Z,828
2017-06-06T13:36:42.424Z,1096
2017-06-06T13:37:43.850Z,968
2017-06-06T13:38:45.272Z,884
2017-06-06T13:39:46.691Z,760
2017-06-06T13:40:48.113Z,852
2017-06-06T13:41:49.533Z,900
2017-06-06T13:42:50.988Z,844
2017-06-06T13:43:52.436Z,800
2017-06-06T13:44:53.868Z,796
2017-06-06T13:45:55.289Z,908
2017-06-06T13:46:56.715Z,900
2017-06-06T13:47:58.145Z,920
2017-06-06T13:48:59.578Z,880
2017-06-06T13:50:01.002Z,796
2017-06-06T13:51:02.553Z,636
2017-06-06T13:52:03.985Z,576
2017-06-06T13:53:05.407Z,640
2017-06-06T13:54:06.837Z,516
2017-06-06T13:55:08.257Z,408
2017-06-06T13:56:09.674Z,300
2017-06-06T13:57:11.100Z,212
2017-06-06T13:58:12.546Z,164
2017-06-06T13:59:14.000Z,148
2017-06-06T14:00:15.414Z,152
2017-06-06T14:01:16.843Z,144
2017-06-06T14:02:18.260Z,128
2017-06-06T14:03:19.676Z,160
2017-06-06T14:04:21.116Z,248
2017-06-06T14:05:22.539Z,308
2017-06-06T14:06:23.963Z,388
2017-06-06T14:07:25.388Z,444
2017-06-06T14:08:26.811Z,532
2017-06-06T14:09:28.232Z,604
2017-06-06T14:10:29.655Z,680
2017-06-06T14:11:31.089Z,788
2017-06-06T14:12:32.512Z,728
2017-06-06T14:13:33.938Z,744
2017-06-06T14:14:35.385Z,744
2017-06-06T14:15:36.805Z,720
2017-06-06T14:16:38.372Z,692
2017-06-06T14:17:39.943Z,644
2017-06-06T14:18:41.365Z,600
2017-06-06T14:19:42.795Z,564
2017-06-06T14:20:44.452Z,576
2017-06-06T14:21:45.872Z,612
2017-06-06T14:22:47.339Z,652
2017-06-06T14:23:48.761Z,676